KALB/ALB METAR and TAF weather

Enter ICAO airport designator
Station Type Date Time Source
KALB METAR 2021/09/28 16:51 UTC NOAA

KALB 281651Z 01006KT 10SM FEW012 BKN060 BKN100 OVC250 16/14 A2984 RMK AO2 SLP102 T01610144


Station Type Date Time Source
KALB Decoded METAR 2021/09/28 16:51 UTC NOAA

ALBANY INTERNATIONAL AIRPORT, NY, United States (KALB) 42-45N 73-48W
Sep 28, 2021 - 12:51 PM EDT / 2021.09.28 1651 UTC
Wind: from the N (010 degrees) at 7 MPH (6 KT):0
Visibility: 10 mile(s):0
Sky conditions: overcast
Temperature: 61.0 F (16.1 C)
Dew Point: 57.9 F (14.4 C)
Relative Humidity: 89%
Pressure (altimeter): 29.84 in. Hg (1010 hPa)
ob: KALB 281651Z 01006KT 10SM FEW012 BKN060 BKN100 OVC250 16/14 A2984 RMK AO2 SLP102 T01610144
cycle: 17

Station Type Date Time Source
KALB TAF 2021/09/28 14:34 UTC NOAA

TAF
AMD KALB 281332Z 2814/2912 31004KT P6SM SCT025 OVC035
TEMPO 2814/2818 BKN025
FM281800 34007KT P6SM BKN035 BKN050
FM282200 33005KT P6SM SCT050 SCT250
FM290300 VRB03KT P6SM SCT050 BKN250
FM290700 00000KT P6SM SCT250

Example: see airport list